createdAt,value
2024-05-09T00:00:39.244Z,97125.72
2024-05-09T00:03:08.607Z,97118.78
2024-05-09T00:05:37.015Z,97106.38
2024-05-09T00:08:04.578Z,97122.44
2024-05-09T00:10:36.436Z,97108.53
2024-05-09T00:13:06.512Z,97109.03
2024-05-09T00:15:34.090Z,97108.00
2024-05-09T00:18:01.748Z,97108.00
2024-05-09T00:20:36.809Z,97119.41
2024-05-09T00:23:07.574Z,97116.09
2024-05-09T00:25:35.566Z,97111.19
2024-05-09T00:28:02.776Z,97118.25
2024-05-09T00:30:34.474Z,97100.97
2024-05-09T00:33:07.775Z,97115.19
2024-05-09T00:35:35.989Z,97113.13
2024-05-09T00:38:02.942Z,97114.41
2024-05-09T00:40:40.985Z,97109.22
2024-05-09T00:43:10.680Z,97112.84
2024-05-09T00:45:37.712Z,97110.75
2024-05-09T00:48:07.975Z,97110.97
2024-05-09T00:50:40.471Z,97114.34
2024-05-09T00:53:10.376Z,97113.06
2024-05-09T00:55:39.016Z,97103.53
2024-05-09T00:58:10.801Z,97108.19
2024-05-09T01:00:41.563Z,97110.75
2024-05-09T01:03:11.504Z,97107.63
2024-05-09T01:05:46.058Z,97098.84
2024-05-09T01:08:13.435Z,97103.28
2024-05-09T01:10:43.897Z,97097.06
2024-05-09T01:13:12.092Z,97098.84
2024-05-09T01:15:38.816Z,97101.72
2024-05-09T01:18:15.057Z,97086.19
2024-05-09T01:20:44.489Z,97090.06
2024-05-09T01:23:14.495Z,97102.22
2024-05-09T01:25:42.974Z,97106.81
2024-05-09T01:28:09.813Z,97103.41
2024-05-09T01:30:37.858Z,97100.03
2024-05-09T01:33:07.766Z,97108.97
2024-05-09T01:35:36.558Z,97106.31
2024-05-09T01:38:03.740Z,97109.09
2024-05-09T01:40:37.330Z,97103.44
2024-05-09T01:43:07.209Z,97099.53
2024-05-09T01:45:34.103Z,97100.81
2024-05-09T01:48:01.448Z,97103.38
2024-05-09T01:50:37.954Z,97105.06
2024-05-09T01:53:09.371Z,97098.84
2024-05-09T01:55:36.373Z,97104.53
2024-05-09T01:58:03.154Z,97105.88
2024-05-09T02:00:38.640Z,97110.59
2024-05-09T02:03:11.024Z,97109.31
2024-05-09T02:05:40.258Z,97101.66
2024-05-09T02:08:07.341Z,97114.88
2024-05-09T02:10:34.176Z,97106.09
2024-05-09T02:13:01.269Z,97098.88
2024-05-09T02:15:28.027Z,97102.03
2024-05-09T02:17:55.325Z,97100.75
2024-05-09T02:20:30.616Z,97104.03
2024-05-09T02:23:04.147Z,97102.22
2024-05-09T02:25:31.783Z,97105.47
2024-05-09T02:27:58.521Z,97098.75
2024-05-09T02:30:35.108Z,97100.56
2024-05-09T02:33:06.684Z,97113.44
2024-05-09T02:35:33.743Z,97102.88
2024-05-09T02:38:00.880Z,97108.59
2024-05-09T02:40:35.801Z,97110.44
2024-05-09T02:43:05.191Z,97110.44
2024-05-09T02:45:32.154Z,97107.06
2024-05-09T02:47:59.322Z,97111.41
2024-05-09T02:50:34.309Z,97105.75
2024-05-09T02:53:05.948Z,97111.34
2024-05-09T02:55:32.964Z,97119.75
2024-05-09T02:57:59.775Z,97122.66
2024-05-09T03:00:34.834Z,97126.28
2024-05-09T03:03:12.745Z,97131.53
2024-05-09T03:05:41.883Z,97129.19
2024-05-09T03:08:09.190Z,97133.97
2024-05-09T03:10:41.927Z,97123.16
2024-05-09T03:13:14.654Z,97133.31
2024-05-09T03:15:43.144Z,97121.81
2024-05-09T03:18:10.962Z,97135.69
2024-05-09T03:20:39.385Z,97136.38
2024-05-09T03:23:08.892Z,97134.28
2024-05-09T03:25:36.692Z,97136.75
2024-05-09T03:28:03.764Z,97137.53
2024-05-09T03:30:39.427Z,97143.91
2024-05-09T03:33:19.841Z,97144.81
2024-05-09T03:35:48.805Z,97138.16
2024-05-09T03:38:16.246Z,97138.72
2024-05-09T03:40:47.104Z,97145.81
2024-05-09T03:43:14.579Z,97142.69
2024-05-09T03:45:42.266Z,97136.75
2024-05-09T03:48:09.166Z,97137.53
2024-05-09T03:50:36.974Z,97134.63
2024-05-09T03:53:04.806Z,97129.06
2024-05-09T03:55:31.557Z,97133.28
2024-05-09T03:57:58.523Z,97132.72
2024-05-09T04:00:31.740Z,97142.06
2024-05-09T04:03:06.992Z,97135.34
2024-05-09T04:05:35.935Z,97136.47
2024-05-09T04:08:02.934Z,97144.34
2024-05-09T04:10:33.680Z,97146.16
2024-05-09T04:13:02.384Z,97144.69
2024-05-09T04:15:29.455Z,97152.72
2024-05-09T04:17:56.637Z,97153.09
2024-05-09T04:20:33.917Z,97155.50
2024-05-09T04:23:07.088Z,97153.97
2024-05-09T04:25:34.891Z,97148.91
2024-05-09T04:28:01.798Z,97145.75
2024-05-09T04:30:37.417Z,97158.47
2024-05-09T04:33:09.104Z,97157.91
2024-05-09T04:35:38.087Z,97158.41
2024-05-09T04:38:05.743Z,97160.75
2024-05-09T04:40:35.797Z,97159.31
2024-05-09T04:43:13.589Z,97161.47
2024-05-09T04:45:40.758Z,97169.09
2024-05-09T04:48:08.111Z,97161.59
2024-05-09T04:50:38.313Z,97158.97
2024-05-09T04:53:08.460Z,97166.63
2024-05-09T04:55:36.881Z,97177.25
2024-05-09T04:58:03.734Z,97170.00
2024-05-09T05:00:36.325Z,97179.28
2024-05-09T05:03:10.786Z,97172.97
2024-05-09T05:05:41.302Z,97179.56
2024-05-09T05:08:16.719Z,97180.53
2024-05-09T05:10:44.644Z,97180.72
2024-05-09T05:13:22.823Z,97181.41
2024-05-09T05:15:57.419Z,97182.81
2024-05-09T05:18:26.197Z,97183.97
2024-05-09T05:20:53.552Z,97190.47
2024-05-09T05:23:21.344Z,97188.75
2024-05-09T05:25:49.599Z,97189.28
2024-05-09T05:28:17.140Z,97181.03
2024-05-09T05:30:43.866Z,97181.69
2024-05-09T05:33:12.015Z,97183.97
2024-05-09T05:35:39.490Z,97182.50
2024-05-09T05:38:06.655Z,97185.41
2024-05-09T05:40:37.065Z,97185.47
2024-05-09T05:43:06.196Z,97185.19
2024-05-09T05:45:32.892Z,97178.78
2024-05-09T05:48:00.438Z,97184.69
2024-05-09T05:50:34.614Z,97188.03
2024-05-09T05:53:05.890Z,97199.66
2024-05-09T05:55:32.828Z,97192.34
2024-05-09T05:58:00.715Z,97192.13
2024-05-09T06:00:34.480Z,97196.81
2024-05-09T06:03:05.423Z,97197.38
2024-05-09T06:05:32.732Z,97203.22
2024-05-09T06:07:59.800Z,97189.00
2024-05-09T06:10:36.755Z,97194.56
2024-05-09T06:13:06.221Z,97194.69
2024-05-09T06:15:32.946Z,97194.13
2024-05-09T06:17:59.754Z,97199.38
2024-05-09T06:20:34.854Z,97186.84
2024-05-09T06:23:04.770Z,97189.78
2024-05-09T06:25:32.166Z,97189.13
2024-05-09T06:28:00.737Z,97189.06
2024-05-09T06:30:36.815Z,97192.72
2024-05-09T06:33:07.991Z,97183.66
2024-05-09T06:35:35.494Z,97186.00
2024-05-09T06:38:02.643Z,97182.53
2024-05-09T06:40:37.130Z,97183.91
2024-05-09T06:43:14.950Z,97177.69
2024-05-09T06:45:43.350Z,97175.72
2024-05-09T07:03:11.418Z,97139.13
2024-05-09T07:05:39.895Z,97165.59
2024-05-09T07:08:07.161Z,97167.84
2024-05-09T07:10:36.290Z,97176.47
2024-05-09T07:13:08.066Z,97171.84
2024-05-09T07:15:34.781Z,97178.16
2024-05-09T07:18:01.597Z,97170.16
2024-05-09T07:20:34.413Z,97174.59
2024-05-09T07:23:05.303Z,97172.00
2024-05-09T07:25:32.271Z,97177.47
2024-05-09T07:27:59.059Z,97181.81
2024-05-09T07:30:32.878Z,97180.78
2024-05-09T07:33:02.305Z,97176.69
2024-05-09T07:35:30.041Z,97163.75
2024-05-09T07:37:57.126Z,97168.97
2024-05-09T07:40:32.746Z,97159.94
2024-05-09T07:43:08.486Z,97163.00
2024-05-09T07:52:32.583Z,97173.69
2024-05-09T07:55:54.077Z,97181.41
2024-05-09T07:58:22.463Z,97178.06
2024-05-09T08:00:49.323Z,97178.09
2024-05-09T08:03:16.371Z,97174.75
2024-05-09T08:05:43.299Z,97175.84
2024-05-09T08:08:11.391Z,97176.09
2024-05-09T08:10:38.195Z,97162.94
2024-05-09T08:13:05.258Z,97155.69
2024-05-09T08:15:32.235Z,97159.81
2024-05-09T08:18:00.178Z,97162.69
2024-05-09T08:20:31.273Z,97170.72
2024-05-09T08:23:01.810Z,97171.56
2024-05-09T08:25:28.713Z,97172.06
2024-05-09T08:27:55.460Z,97171.53
2024-05-09T08:30:30.039Z,97170.75
2024-05-09T08:33:04.714Z,97175.16
2024-05-09T08:35:32.195Z,97170.75
2024-05-09T08:37:59.225Z,97166.09
2024-05-09T08:40:33.510Z,97166.88
2024-05-09T08:43:06.895Z,97157.81
2024-05-09T08:45:35.430Z,97157.75
2024-05-09T08:48:09.909Z,97167.06
2024-05-09T08:50:40.377Z,97152.25
2024-05-09T08:53:08.737Z,97145.53
2024-05-09T08:55:40.215Z,97151.44
2024-05-09T08:58:12.689Z,97153.53
2024-05-09T09:00:42.119Z,97160.31
2024-05-09T09:03:10.846Z,97150.25
2024-05-09T09:05:40.042Z,97155.94
2024-05-09T09:08:08.695Z,97151.81
2024-05-09T09:10:35.938Z,97149.50
2024-05-09T09:13:09.842Z,97150.53
2024-05-09T09:15:50.291Z,97147.41
2024-05-09T09:18:18.554Z,97150.75
2024-05-09T09:20:45.728Z,97145.78
2024-05-09T09:23:12.651Z,97150.34
2024-05-09T09:25:40.685Z,97144.41
2024-05-09T09:28:08.195Z,97141.91
2024-05-09T09:30:37.892Z,97136.72
2024-05-09T09:33:11.992Z,97140.66
2024-05-09T09:35:41.996Z,97131.47
2024-05-09T09:38:10.636Z,97129.16
2024-05-09T09:40:44.964Z,97133.25
2024-05-09T09:43:19.725Z,97128.13
2024-05-09T09:45:50.038Z,97130.81
2024-05-09T09:48:16.985Z,97119.38
2024-05-09T09:50:45.413Z,97116.53
2024-05-09T09:53:13.075Z,97115.03
2024-05-09T09:55:41.819Z,97113.19
2024-05-09T09:58:13.222Z,97101.88
2024-05-09T10:00:41.360Z,97102.44
2024-05-09T10:03:08.319Z,97098.59
2024-05-09T10:05:35.535Z,97092.75
2024-05-09T10:08:07.417Z,97079.28
2024-05-09T10:10:35.644Z,97089.63
2024-05-09T10:13:09.145Z,97082.69
2024-05-09T10:15:46.472Z,97078.19
2024-05-09T10:18:13.889Z,97077.34
2024-05-09T10:20:49.372Z,97074.75
2024-05-09T10:23:44.262Z,97077.84
2024-05-09T10:26:10.973Z,97071.97
2024-05-09T10:28:44.076Z,97083.56
2024-05-09T10:31:13.392Z,97091.41
2024-05-09T10:33:52.131Z,97082.03
2024-05-09T10:36:23.750Z,97084.50
2024-05-09T10:38:52.090Z,97083.81
2024-05-09T10:41:20.165Z,97083.34
2024-05-09T10:43:47.859Z,97080.41
2024-05-09T10:46:15.107Z,97076.72
2024-05-09T10:48:44.387Z,97085.53
2024-05-09T10:51:11.783Z,97085.03
2024-05-09T10:53:42.612Z,97080.78
2024-05-09T10:56:10.050Z,97097.44
2024-05-09T10:58:37.144Z,97106.88
2024-05-09T11:01:07.020Z,97100.03
2024-05-09T11:03:35.529Z,97090.63
2024-05-09T11:06:02.833Z,97086.66
2024-05-09T11:08:32.134Z,97087.53
2024-05-09T11:11:03.274Z,97086.16
2024-05-09T11:13:31.422Z,97093.28
2024-05-09T11:15:59.347Z,97091.00
2024-05-09T11:18:30.420Z,97084.06
2024-05-09T11:21:00.063Z,97084.28
2024-05-09T11:23:30.096Z,97084.44
2024-05-09T11:25:58.695Z,97086.97
2024-05-09T11:28:28.802Z,97083.56
2024-05-09T11:31:09.118Z,97079.09
2024-05-09T11:33:41.568Z,97058.66
2024-05-09T11:36:09.643Z,97067.97
2024-05-09T11:38:36.496Z,97071.78
2024-05-09T11:41:05.352Z,97061.72
2024-05-09T11:43:32.524Z,97058.88
2024-05-09T11:45:59.772Z,97041.25
2024-05-09T11:48:27.044Z,97054.91
2024-05-09T11:50:55.418Z,97060.25
2024-05-09T11:53:22.572Z,97057.38
2024-05-09T11:55:49.375Z,97058.38
2024-05-09T11:58:18.168Z,97052.81
2024-05-09T12:00:45.821Z,97044.59
2024-05-09T12:03:12.946Z,97052.28
2024-05-09T12:05:39.841Z,97048.75
2024-05-09T12:08:07.436Z,97040.81
2024-05-09T12:10:36.047Z,97040.38
2024-05-09T12:13:05.807Z,97043.50
2024-05-09T12:15:36.424Z,97037.81
2024-05-09T12:18:04.721Z,97040.00
2024-05-09T12:20:37.213Z,97043.78
2024-05-09T12:23:07.160Z,97025.97
2024-05-09T12:25:34.430Z,97028.19
2024-05-09T12:28:01.376Z,97019.44
2024-05-09T12:30:35.850Z,97018.91
2024-05-09T12:33:08.162Z,97009.00
2024-05-09T12:35:35.210Z,97016.72
2024-05-09T12:38:02.203Z,97017.44
2024-05-09T12:40:35.760Z,97020.50
2024-05-09T12:43:08.877Z,97029.41
2024-05-09T12:45:37.000Z,97020.91
2024-05-09T12:48:07.115Z,97024.50
2024-05-09T12:50:34.792Z,97023.25
2024-05-09T12:53:03.186Z,97030.28
2024-05-09T12:55:37.136Z,97018.75
2024-05-09T12:58:11.523Z,97029.50
2024-05-09T13:00:38.343Z,97029.03
2024-05-09T13:03:05.482Z,97025.09
2024-05-09T13:05:32.510Z,97025.53
2024-05-09T13:08:00.685Z,97032.94
2024-05-09T13:10:32.148Z,97041.06
2024-05-09T13:13:01.343Z,97038.94
2024-05-09T13:15:30.158Z,97054.25
2024-05-09T13:18:00.512Z,97069.94
2024-05-09T13:20:33.598Z,97040.78
2024-05-09T13:23:04.142Z,97062.34
2024-05-09T13:25:31.096Z,97052.84
2024-05-09T13:27:58.020Z,97055.41
2024-05-09T13:30:34.326Z,97052.59
2024-05-09T13:33:07.039Z,97066.16
2024-05-09T13:35:35.660Z,97050.16
2024-05-09T13:38:04.355Z,97048.56
2024-05-09T13:40:34.645Z,97049.56
2024-05-09T13:43:06.497Z,97045.66
2024-05-09T13:45:34.334Z,97042.31
2024-05-09T13:48:02.627Z,97027.47
2024-05-09T13:50:35.904Z,97036.75
2024-05-09T13:53:06.210Z,97036.94
2024-05-09T13:55:34.350Z,97029.63
2024-05-09T13:58:01.476Z,97030.59
2024-05-09T14:00:41.694Z,97037.19
2024-05-09T14:03:14.041Z,97031.16
2024-05-09T14:05:41.415Z,97029.22
2024-05-09T14:08:08.705Z,97038.38
2024-05-09T14:10:35.727Z,97036.56
2024-05-09T14:13:02.671Z,97043.63
2024-05-09T14:15:29.622Z,97043.72
2024-05-09T14:17:56.453Z,97051.06
2024-05-09T14:20:30.403Z,97041.63
2024-05-09T14:23:00.196Z,97059.16
2024-05-09T14:25:35.107Z,97048.81
2024-05-09T14:28:04.080Z,97052.41
2024-05-09T14:30:36.649Z,97052.91
2024-05-09T14:33:06.530Z,97035.31
2024-05-09T14:35:34.318Z,97031.97
2024-05-09T14:38:02.865Z,97038.72
2024-05-09T14:40:40.242Z,97035.84
2024-05-09T14:43:11.510Z,97034.69
2024-05-09T14:45:38.892Z,97032.38
2024-05-09T14:48:06.264Z,97045.34
2024-05-09T14:50:37.193Z,97037.66
2024-05-09T14:53:07.742Z,97043.13
2024-05-09T14:55:40.018Z,97043.72
2024-05-09T14:58:09.097Z,97041.38
2024-05-09T15:00:44.758Z,97034.69
2024-05-09T15:03:15.144Z,97046.31
2024-05-09T15:05:42.083Z,97037.81
2024-05-09T15:08:09.086Z,97029.00
2024-05-09T15:10:37.115Z,97036.78
2024-05-09T15:13:06.058Z,97035.72
2024-05-09T15:15:34.218Z,97041.16
2024-05-09T15:18:01.381Z,97038.31
2024-05-09T15:20:34.548Z,97039.34
2024-05-09T15:23:04.594Z,97040.38
2024-05-09T15:25:31.515Z,97042.47
2024-05-09T15:27:58.406Z,97038.81
2024-05-09T15:32:57.469Z,97034.19
2024-05-09T15:35:25.393Z,97041.41
2024-05-09T15:37:53.381Z,97037.28
2024-05-09T15:40:30.893Z,97036.25
2024-05-09T15:43:06.519Z,97047.09
2024-05-09T15:45:35.295Z,97046.59
2024-05-09T15:48:04.660Z,97042.97
2024-05-09T15:50:38.365Z,97056.41
2024-05-09T15:53:10.393Z,97054.09
2024-05-09T15:55:37.798Z,97062.09
2024-05-09T15:58:07.080Z,97053.31
2024-05-09T16:00:39.959Z,97056.69
2024-05-09T16:03:11.769Z,97047.91
2024-05-09T16:05:41.483Z,97074.50
2024-05-09T16:08:09.732Z,97073.72
2024-05-09T16:10:43.987Z,97080.19
2024-05-09T16:13:12.879Z,97081.75
2024-05-09T16:15:41.412Z,97081.19
2024-05-09T16:18:08.558Z,97085.34
2024-05-09T16:20:40.401Z,97078.63
2024-05-09T16:23:10.755Z,97085.59
2024-05-09T16:25:46.308Z,97097.97
2024-05-09T16:28:14.524Z,97105.44
2024-05-09T16:30:42.901Z,97106.44
2024-05-09T16:33:12.013Z,97105.31
2024-05-09T16:35:40.600Z,97110.69
2024-05-09T16:38:08.560Z,97112.19
2024-05-09T16:40:40.143Z,97112.44
2024-05-09T16:43:10.461Z,97113.94
2024-05-09T16:45:46.312Z,97109.25
2024-05-09T16:48:14.841Z,97118.31
2024-05-09T16:50:43.087Z,97122.97
2024-05-09T16:53:12.071Z,97128.03
2024-05-09T16:55:41.652Z,97130.63
2024-05-09T16:58:12.283Z,97130.66
2024-05-09T17:00:43.629Z,97140.53
2024-05-09T17:03:14.442Z,97146.69
2024-05-09T17:05:42.903Z,97147.47
2024-05-09T17:08:11.703Z,97149.28
2024-05-09T17:10:38.602Z,97146.97
2024-05-09T17:13:07.499Z,97156.94
2024-05-09T17:15:37.120Z,97151.00
2024-05-09T17:18:04.701Z,97148.97
2024-05-09T17:20:35.168Z,97152.63
2024-05-09T17:23:05.774Z,97155.19
2024-05-09T17:25:33.320Z,97156.72
2024-05-09T17:28:06.231Z,97160.13
2024-05-09T17:30:36.863Z,97151.53
2024-05-09T17:33:06.740Z,97159.53
2024-05-09T17:35:35.234Z,97140.19
2024-05-09T17:38:02.106Z,97154.66
2024-05-09T17:40:33.720Z,97157.44
2024-05-09T17:43:04.697Z,97159.47
2024-05-09T17:45:32.288Z,97160.69
2024-05-09T17:47:59.643Z,97153.25
2024-05-09T17:50:33.446Z,97159.44
2024-05-09T17:53:03.155Z,97157.38
2024-05-09T17:55:30.125Z,97162.28
2024-05-09T17:57:57.405Z,97166.06
2024-05-09T18:00:33.535Z,97173.25
2024-05-09T18:03:06.734Z,97165.78
2024-05-09T18:05:36.375Z,97163.19
2024-05-09T18:08:04.029Z,97174.00
2024-05-09T18:10:36.853Z,97171.44
2024-05-09T18:13:08.444Z,97171.44
2024-05-09T18:15:37.593Z,97174.00
2024-05-09T18:18:16.528Z,97175.56
2024-05-09T18:21:18.451Z,97174.66
2024-05-09T18:23:46.668Z,97175.09
2024-05-09T18:26:14.819Z,97179.72
2024-05-09T18:28:42.831Z,97178.34
2024-05-09T18:31:10.852Z,97189.88
2024-05-09T18:33:39.042Z,97195.78
2024-05-09T18:36:07.515Z,97193.06
2024-05-09T18:38:35.751Z,97204.66
2024-05-09T18:41:04.401Z,97195.34
2024-05-09T18:43:38.548Z,97207.97
2024-05-09T18:46:13.488Z,97209.13
2024-05-09T18:48:43.074Z,97210.72
2024-05-09T18:51:11.854Z,97218.34
2024-05-09T18:53:40.829Z,97220.22
2024-05-09T18:56:12.117Z,97222.06
2024-05-09T18:58:39.878Z,97216.91
2024-05-09T19:01:09.257Z,97229.03
2024-05-09T19:03:40.055Z,97228.00
2024-05-09T19:06:08.048Z,97229.09
2024-05-09T19:08:40.446Z,97230.00
2024-05-09T19:11:08.816Z,97228.81
2024-05-09T19:13:36.947Z,97239.34
2024-05-09T19:16:05.602Z,97235.41
2024-05-09T19:18:34.688Z,97223.09
2024-05-09T19:21:02.683Z,97247.00
2024-05-09T19:23:32.625Z,97249.91
2024-05-09T19:26:03.648Z,97253.25
2024-05-09T19:28:32.162Z,97254.66
2024-05-09T19:31:01.293Z,97262.53
2024-05-09T19:33:31.879Z,97262.47
2024-05-09T19:35:59.893Z,97262.59
2024-05-09T19:38:27.931Z,97260.84
2024-05-09T19:40:57.951Z,97263.06
2024-05-09T19:43:26.006Z,97270.13
2024-05-09T19:45:56.220Z,97274.94
2024-05-09T19:48:24.528Z,97278.41
2024-05-09T19:50:55.294Z,97263.16
2024-05-09T19:53:22.223Z,97259.56
2024-05-09T19:55:52.549Z,97273.59
2024-05-09T19:58:19.474Z,97265.78
2024-05-09T20:00:46.282Z,97267.75
2024-05-09T20:03:15.749Z,97269.91
2024-05-09T20:05:46.719Z,97267.84
2024-05-09T20:08:17.332Z,97274.38
2024-05-09T20:10:54.055Z,97275.25
2024-05-09T20:13:21.057Z,97274.56
2024-05-09T20:15:49.322Z,97271.72
2024-05-09T20:18:20.542Z,97275.28
2024-05-09T20:20:49.850Z,97267.97
2024-05-09T20:23:19.509Z,97276.25
2024-05-09T20:25:50.643Z,97259.38
2024-05-09T20:28:18.643Z,97277.94
2024-05-09T20:30:47.974Z,97279.00
2024-05-09T20:33:15.946Z,97278.34
2024-05-09T20:35:42.921Z,97270.56
2024-05-09T20:38:13.310Z,97275.03
2024-05-09T20:40:40.422Z,97270.16
2024-05-09T20:43:13.999Z,97279.81
2024-05-09T20:45:42.225Z,97280.31
2024-05-09T20:48:13.319Z,97280.31
2024-05-09T20:50:42.851Z,97283.81
2024-05-09T20:53:19.356Z,97285.50
2024-05-09T20:55:47.659Z,97281.88
2024-05-09T20:58:16.146Z,97277.22
2024-05-09T21:00:45.977Z,97290.09
2024-05-09T21:03:16.338Z,97280.94
2024-05-09T21:05:46.342Z,97280.50
2024-05-09T21:08:14.508Z,97280.16
2024-05-09T21:10:42.820Z,97283.84
2024-05-09T21:13:11.294Z,97287.13
2024-05-09T21:15:39.530Z,97298.13
2024-05-09T21:18:08.835Z,97270.72
2024-05-09T21:20:37.718Z,97271.91
2024-05-09T21:23:06.055Z,97275.59
2024-05-09T21:25:34.162Z,97271.41
2024-05-09T21:28:03.094Z,97278.94
2024-05-09T21:30:40.371Z,97292.56
2024-05-09T21:33:13.738Z,97291.41
2024-05-09T21:35:46.109Z,97294.00
2024-05-09T21:38:14.991Z,97284.16
2024-05-09T21:40:43.954Z,97281.53
2024-05-09T21:43:12.266Z,97280.25
2024-05-09T21:45:40.323Z,97290.22
2024-05-09T21:48:11.312Z,97284.97
2024-05-09T21:50:41.664Z,97285.91
2024-05-09T21:53:14.045Z,97289.94
2024-05-09T21:55:46.519Z,97284.16
2024-05-09T21:58:15.121Z,97290.28
2024-05-09T22:00:45.637Z,97283.19
2024-05-09T22:03:14.130Z,97284.63
2024-05-09T22:05:44.431Z,97284.53
2024-05-09T22:08:12.659Z,97289.00
2024-05-09T22:10:40.630Z,97283.25
2024-05-09T22:13:11.140Z,97280.47
2024-05-09T22:15:41.496Z,97279.50
2024-05-09T22:18:11.585Z,97279.44
2024-05-09T22:20:47.758Z,97278.38
2024-05-09T22:23:16.112Z,97275.69
2024-05-09T22:25:44.286Z,97278.03
2024-05-09T22:28:17.534Z,97275.97
2024-05-09T22:30:47.257Z,97280.75
2024-05-09T22:33:15.993Z,97292.50
2024-05-09T22:35:44.381Z,97283.13
2024-05-09T22:38:11.458Z,97285.66
2024-05-09T22:40:47.119Z,97280.34
2024-05-09T22:43:23.746Z,97277.78
2024-05-09T22:45:57.033Z,97280.88
2024-05-09T22:48:25.805Z,97285.66
2024-05-09T22:50:54.947Z,97270.41
2024-05-09T22:53:24.937Z,97272.84
2024-05-09T22:55:52.958Z,97266.66
2024-05-09T22:58:21.641Z,97271.69
2024-05-09T23:00:49.711Z,97269.06
2024-05-09T23:03:21.115Z,97267.28
2024-05-09T23:05:50.022Z,97273.13
2024-05-09T23:08:18.222Z,97269.25
2024-05-09T23:10:46.476Z,97259.34
2024-05-09T23:13:14.404Z,97265.50
2024-05-09T23:15:42.368Z,97266.09
2024-05-09T23:18:11.393Z,97261.63
2024-05-09T23:20:40.237Z,97261.63
2024-05-09T23:23:10.630Z,97257.88
2024-05-09T23:25:41.802Z,97266.00
2024-05-09T23:28:10.986Z,97264.91
2024-05-09T23:30:40.880Z,97266.00
2024-05-09T23:33:14.182Z,97265.59
2024-05-09T23:35:44.316Z,97260.59
2024-05-09T23:38:13.456Z,97259.75
2024-05-09T23:40:42.922Z,97254.25
2024-05-09T23:43:12.515Z,97261.03
2024-05-09T23:45:42.497Z,97256.78
2024-05-09T23:48:11.159Z,97251.84
2024-05-09T23:50:41.024Z,97250.88
2024-05-09T23:53:11.401Z,97247.94
2024-05-09T23:55:39.635Z,97254.59
2024-05-09T23:58:09.943Z,97248.91
